Time;durP1;ratioP1;P1;durP2;ratioP2;P2;SDS_P1;SDS_P2;PMS_P1;PMS_P2;Temp;Humidity;BMP_temperature;BMP_pressure;BME280_temperature;BME280_humidity;BME280_pressure;Samples;Min_cycle;Max_cycle;Signal;HPM_P1;HPM_P2
2022/04/01 00:01:20;;;;;;;12.27;9.63;;;10.10;99.90;;;;;;5018359;28;20369;-85
2022/04/01 00:03:45;;;;;;;13.15;9.85;;;10.10;99.90;;;;;;5018347;28;20452;-85
2022/04/01 00:06:11;;;;;;;12.18;9.93;;;10.10;99.90;;;;;;5019461;28;20033;-85
2022/04/01 00:08:37;;;;;;;12.63;9.75;;;10.10;99.90;;;;;;5018205;28;20488;-85
2022/04/01 00:11:03;;;;;;;12.25;9.13;;;10.10;99.90;;;;;;5018205;28;20453;-85
2022/04/01 00:13:28;;;;;;;13.13;9.18;;;10.10;99.90;;;;;;5018177;28;20034;-85
2022/04/01 00:15:54;;;;;;;12.48;8.98;;;10.10;99.90;;;;;;5018172;28;20125;-85
2022/04/01 00:18:20;;;;;;;11.77;8.80;;;10.10;99.90;;;;;;5018094;28;20026;-85
2022/04/01 00:20:46;;;;;;;11.23;8.85;;;10.10;99.90;;;;;;5019439;28;20468;-85
2022/04/01 00:23:12;;;;;;;11.45;8.38;;;10.10;99.90;;;;;;5018124;28;20072;-85
2022/04/01 00:25:39;;;;;;;10.85;8.23;;;10.10;99.90;;;;;;5019350;28;20049;-85
2022/04/01 00:28:05;;;;;;;10.02;8.45;;;10.10;99.90;;;;;;5018052;28;20052;-85
2022/04/01 00:30:33;;;;;;;13.30;8.30;;;10.00;99.90;;;;;;5018032;28;20045;-85
2022/04/01 00:33:01;;;;;;;11.38;8.65;;;10.10;99.90;;;;;;5002066;28;20069;-85
2022/04/01 00:35:26;;;;;;;11.27;8.38;;;10.10;99.90;;;;;;5017953;28;20033;-85
2022/04/01 00:37:52;;;;;;;9.98;8.05;;;10.00;99.90;;;;;;5017831;28;20026;-85
2022/04/01 00:40:19;;;;;;;11.48;8.65;;;10.10;99.90;;;;;;5018438;28;20535;-85
2022/04/01 00:42:45;;;;;;;13.98;10.05;;;10.00;99.90;;;;;;5017942;28;20041;-85
2022/04/01 00:45:11;;;;;;;12.18;9.35;;;10.00;99.90;;;;;;5017828;28;20539;-85
2022/04/01 00:47:38;;;;;;;12.38;9.75;;;10.00;99.90;;;;;;5017829;28;20392;-85
2022/04/01 00:50:05;;;;;;;14.77;10.50;;;10.00;99.90;;;;;;5017765;28;20022;-84
2022/04/01 00:52:32;;;;;;;15.25;11.02;;;10.00;99.90;;;;;;5017744;28;20056;-85
2022/04/01 00:54:59;;;;;;;15.45;11.13;;;10.00;99.90;;;;;;5015572;28;20030;-85
2022/04/01 00:57:26;;;;;;;14.60;11.55;;;10.00;99.90;;;;;;5016100;28;20109;-85
2022/04/01 00:59:54;;;;;;;14.65;11.90;;;10.00;99.90;;;;;;5014618;28;20488;-85
2022/04/01 01:02:20;;;;;;;16.88;12.80;;;10.00;99.90;;;;;;5014597;28;20018;-85
2022/04/01 01:04:46;;;;;;;17.60;12.38;;;10.00;99.90;;;;;;5014617;28;20030;-84
2022/04/01 01:07:14;;;;;;;18.33;13.80;;;9.90;99.90;;;;;;5014531;28;20049;-84
2022/04/01 01:09:40;;;;;;;18.10;13.50;;;10.00;99.90;;;;;;5014495;28;20084;-84
2022/04/01 01:12:06;;;;;;;17.75;13.70;;;10.00;99.90;;;;;;5015725;28;20156;-85
2022/04/01 01:14:34;;;;;;;19.35;13.70;;;10.00;99.90;;;;;;5014432;28;20037;-84
2022/04/01 01:17:02;;;;;;;17.88;13.55;;;10.00;99.90;;;;;;5014404;28;20546;-84
2022/04/01 01:19:32;;;;;;;19.67;14.50;;;10.00;99.90;;;;;;5014188;28;20076;-84
2022/04/01 01:21:58;;;;;;;17.80;14.38;;;10.20;99.90;;;;;;5014260;28;20488;-84
2022/04/01 01:24:28;;;;;;;17.27;13.48;;;10.10;99.90;;;;;;5014235;28;20026;-85
2022/04/01 01:26:55;;;;;;;18.75;14.32;;;10.10;99.90;;;;;;5015449;28;20102;-84
2022/04/01 01:29:27;;;;;;;21.75;14.85;;;10.00;99.90;;;;;;5015405;28;20034;-84
2022/04/01 01:31:54;;;;;;;17.13;13.88;;;10.10;99.90;;;;;;5014068;28;20121;-85
2022/04/01 01:34:21;;;;;;;17.75;13.32;;;10.10;99.90;;;;;;5015324;28;20102;-85
2022/04/01 01:36:48;;;;;;;17.13;13.25;;;10.10;99.90;;;;;;5013961;28;20040;-85
2022/04/01 01:39:14;;;;;;;17.50;13.27;;;10.10;99.90;;;;;;5013948;28;20563;-85
2022/04/01 01:41:41;;;;;;;20.15;14.52;;;10.00;99.90;;;;;;5013990;28;20021;-84
2022/04/01 01:44:07;;;;;;;17.55;13.85;;;10.00;99.90;;;;;;5015131;28;20018;-84
2022/04/01 01:46:34;;;;;;;16.92;13.75;;;9.90;99.90;;;;;;5013786;28;20481;-85
2022/04/01 01:49:00;;;;;;;18.65;13.70;;;9.90;99.90;;;;;;5013743;28;20026;-85
2022/04/01 01:56:54;;;;;;;16.48;12.68;;;9.90;99.90;;;;;;5015334;28;20497;-85
2022/04/01 01:59:20;;;;;;;16.38;13.23;;;9.90;99.90;;;;;;5013499;28;20038;-85
2022/04/01 02:01:46;;;;;;;16.58;12.68;;;9.90;99.90;;;;;;5013515;28;20040;-84
2022/04/01 02:04:11;;;;;;;17.30;13.52;;;9.80;99.90;;;;;;5013460;28;20022;-84
2022/04/01 02:06:38;;;;;;;17.30;13.52;;;9.80;99.90;;;;;;5014418;28;20054;-85
2022/04/01 02:09:04;;;;;;;15.98;13.05;;;9.80;99.90;;;;;;5013863;28;20381;-85
2022/04/01 02:11:30;;;;;;;17.25;12.82;;;9.80;99.90;;;;;;5013334;28;20056;-85
2022/04/01 02:13:57;;;;;;;17.13;13.38;;;9.80;99.90;;;;;;5013303;28;20026;-85
2022/04/01 02:16:23;;;;;;;16.77;13.13;;;9.80;99.90;;;;;;5014777;28;20030;-85
2022/04/01 02:18:49;;;;;;;16.40;12.77;;;9.80;99.90;;;;;;5013151;28;20029;-85
2022/04/01 02:21:15;;;;;;;17.52;12.82;;;9.80;99.90;;;;;;5013392;28;20075;-85
2022/04/01 02:23:46;;;;;;;17.42;12.93;;;9.80;99.90;;;;;;5013141;28;20025;-85
2022/04/01 02:26:13;;;;;;;17.50;13.43;;;9.80;99.90;;;;;;5014386;28;20145;-85
2022/04/01 02:28:40;;;;;;;16.38;12.50;;;9.80;99.90;;;;;;5014312;28;20030;-85
2022/04/01 02:31:05;;;;;;;16.60;13.07;;;9.80;99.90;;;;;;5014292;28;20040;-85
2022/04/01 02:33:32;;;;;;;17.35;13.43;;;9.80;99.90;;;;;;5012902;28;20021;-85
2022/04/01 02:35:59;;;;;;;16.92;13.00;;;9.80;99.90;;;;;;5014152;28;20033;-84
2022/04/01 02:38:29;;;;;;;18.27;13.65;;;9.80;99.90;;;;;;5012702;28;20025;-85
2022/04/01 02:40:56;;;;;;;18.55;13.38;;;9.80;99.90;;;;;;5012727;28;20485;-85
2022/04/01 02:43:22;;;;;;;17.15;13.20;;;9.80;99.90;;;;;;5012817;28;20366;-85
2022/04/01 02:45:48;;;;;;;16.20;13.15;;;9.80;99.90;;;;;;5012730;28;20495;-85
2022/04/01 02:48:19;;;;;;;15.95;12.82;;;9.80;99.90;;;;;;5013942;28;20093;-85
2022/04/01 02:50:47;;;;;;;17.40;13.43;;;9.70;99.90;;;;;;5012438;28;20425;-85
2022/04/01 02:53:13;;;;;;;17.52;12.38;;;9.70;99.90;;;;;;5012674;28;20117;-85
2022/04/01 02:55:40;;;;;;;16.30;13.45;;;9.70;99.90;;;;;;5012637;28;20026;-85
2022/04/01 02:58:06;;;;;;;16.88;13.38;;;9.70;99.90;;;;;;5012483;28;20026;-85
2022/04/01 03:00:37;;;;;;;16.63;13.00;;;9.70;99.90;;;;;;5012473;28;20080;-85
2022/04/01 03:03:07;;;;;;;17.05;13.57;;;9.70;99.90;;;;;;5012502;28;20044;-85
2022/04/01 03:05:37;;;;;;;17.48;13.45;;;9.70;99.90;;;;;;5012512;28;20481;-86
2022/04/01 03:08:05;;;;;;;18.40;13.73;;;9.70;99.90;;;;;;5012415;28;20018;-85
2022/04/01 03:10:41;;;;;;;16.67;13.60;;;9.70;99.90;;;;;;5012317;28;20056;-85
2022/04/01 03:13:08;;;;;;;18.30;13.85;;;9.70;99.90;;;;;;5013874;28;20552;-85
2022/04/01 03:15:34;;;;;;;17.48;13.18;;;9.70;99.90;;;;;;5013844;28;20028;-85
2022/04/01 03:17:59;;;;;;;17.20;13.77;;;9.70;99.90;;;;;;5011980;28;20108;-85
2022/04/01 03:20:29;;;;;;;16.90;13.60;;;9.70;99.90;;;;;;5012188;28;20030;-86
2022/04/01 03:22:56;;;;;;;16.67;13.77;;;9.70;99.90;;;;;;5013492;28;20018;-85
2022/04/01 03:25:21;;;;;;;15.45;12.32;;;9.70;99.90;;;;;;5012159;28;20044;-86
2022/04/01 03:27:48;;;;;;;16.55;13.35;;;9.70;99.90;;;;;;5012137;28;20029;-86
2022/04/01 03:30:16;;;;;;;18.35;14.30;;;9.70;99.90;;;;;;5012082;28;20477;-86
2022/04/01 03:32:43;;;;;;;17.25;13.65;;;9.70;99.90;;;;;;5011966;28;20026;-86
2022/04/01 03:35:15;;;;;;;16.10;12.98;;;9.70;99.90;;;;;;5012811;28;20076;-86
2022/04/01 03:37:41;;;;;;;16.23;12.88;;;9.60;99.90;;;;;;5012065;28;20022;-86
2022/04/01 03:40:08;;;;;;;17.67;12.95;;;9.70;99.90;;;;;;5011874;28;20463;-85
2022/04/01 03:42:34;;;;;;;14.52;12.30;;;9.60;99.90;;;;;;5012049;28;20440;-86
2022/04/01 03:45:03;;;;;;;15.25;12.10;;;9.60;99.90;;;;;;5013192;28;20022;-86
2022/04/01 03:47:50;;;;;;;16.60;13.30;;;9.60;99.90;;;;;;5011945;28;20022;-86
2022/04/01 03:50:19;;;;;;;15.88;11.70;;;9.60;99.90;;;;;;5011838;28;20500;-86
2022/04/01 03:52:47;;;;;;;14.90;12.13;;;9.70;99.90;;;;;;5011698;28;20468;-86
2022/04/01 03:55:13;;;;;;;16.08;12.90;;;9.80;99.90;;;;;;5011869;28;20424;-86
2022/04/01 03:57:40;;;;;;;16.52;12.02;;;9.70;99.90;;;;;;5012623;28;20495;-86
2022/04/01 04:00:12;;;;;;;14.00;11.55;;;9.70;99.90;;;;;;5013278;28;20022;-87
2022/04/01 04:02:42;;;;;;;14.75;11.63;;;9.70;99.90;;;;;;5011810;28;20112;-86
2022/04/01 04:05:09;;;;;;;14.30;11.63;;;9.70;99.90;;;;;;5011737;28;20030;-86
2022/04/01 04:07:39;;;;;;;14.10;11.20;;;9.70;99.90;;;;;;5011791;28;20022;-86
2022/04/01 04:10:06;;;;;;;14.18;11.35;;;9.70;99.90;;;;;;5011723;28;20022;-86
2022/04/01 04:12:35;;;;;;;14.27;11.48;;;9.60;99.90;;;;;;5011661;28;20026;-86
2022/04/01 04:15:02;;;;;;;13.23;10.68;;;9.70;99.90;;;;;;5012451;28;20025;-86
2022/04/01 04:17:42;;;;;;;13.93;10.70;;;9.70;99.90;;;;;;5013164;28;20084;-86
2022/04/01 04:20:08;;;;;;;12.73;10.27;;;9.70;99.90;;;;;;5011529;28;20037;-86
2022/04/01 04:22:50;;;;;;;12.75;10.50;;;9.60;99.90;;;;;;5011524;28;20022;-86
2022/04/01 04:25:21;;;;;;;13.45;10.50;;;9.60;99.90;;;;;;5011578;28;20026;-86
2022/04/01 04:28:00;;;;;;;14.13;10.93;;;9.60;99.90;;;;;;5011528;28;20026;-86
2022/04/01 04:30:35;;;;;;;12.23;10.23;;;9.60;99.90;;;;;;5013810;28;20527;-86
2022/04/01 04:33:05;;;;;;;13.15;10.80;;;9.60;99.90;;;;;;5012723;28;20026;-86
2022/04/01 04:35:35;;;;;;;12.30;10.25;;;9.50;99.90;;;;;;5015158;28;20026;-87
2022/04/01 04:38:02;;;;;;;12.80;10.75;;;9.60;99.90;;;;;;5016259;28;20025;-86
2022/04/01 04:40:28;;;;;;;13.23;10.05;;;9.60;99.90;;;;;;5015051;28;20081;-86
2022/04/01 04:42:54;;;;;;;12.50;10.70;;;9.50;99.90;;;;;;5015289;28;20437;-86
2022/04/01 04:45:21;;;;;;;13.48;10.57;;;9.50;99.90;;;;;;5014937;28;20029;-86
2022/04/01 04:47:48;;;;;;;13.52;10.43;;;9.50;99.90;;;;;;5014854;28;20026;-86
2022/04/01 04:50:19;;;;;;;12.52;10.13;;;9.70;99.90;;;;;;5014802;28;20026;-86
2022/04/01 04:52:50;;;;;;;12.98;10.20;;;9.60;99.90;;;;;;5014742;28;20096;-86
2022/04/01 04:55:19;;;;;;;12.15;9.77;;;9.70;99.90;;;;;;5016367;28;20473;-87
2022/04/01 04:57:47;;;;;;;12.95;10.48;;;9.60;99.90;;;;;;5014841;28;20025;-86
2022/04/01 05:00:19;;;;;;;12.65;9.98;;;9.50;99.90;;;;;;5015917;28;20481;-86
2022/04/01 05:03:10;;;;;;;12.32;9.90;;;9.50;99.90;;;;;;5014747;28;20118;-86
2022/04/01 05:05:51;;;;;;;12.80;10.15;;;9.50;99.90;;;;;;5016188;28;20026;-86
2022/04/01 05:08:31;;;;;;;12.70;10.27;;;9.50;99.90;;;;;;5014591;28;20441;-86
2022/04/01 05:11:10;;;;;;;12.73;10.65;;;9.50;99.90;;;;;;5015876;28;20537;-86
2022/04/01 05:14:19;;;;;;;12.43;10.25;;;9.50;99.90;;;;;;5016372;28;20100;-86
2022/04/01 05:16:59;;;;;;;12.77;9.88;;;9.50;99.90;;;;;;4929646;28;20039;-86
2022/04/01 05:19:27;;;;;;;13.18;11.00;;;9.50;99.90;;;;;;5014306;28;20080;-86
2022/04/01 05:21:53;;;;;;;12.68;10.68;;;9.50;99.90;;;;;;5014371;28;20066;-86
2022/04/01 05:24:27;;;;;;;13.57;11.02;;;9.50;99.90;;;;;;5014330;28;20056;-86
2022/04/01 05:26:55;;;;;;;11.98;10.45;;;9.50;99.90;;;;;;5015614;28;20473;-87
2022/04/01 05:29:26;;;;;;;13.40;10.70;;;9.50;99.90;;;;;;5015709;28;20133;-87
2022/04/01 05:32:00;;;;;;;14.02;11.13;;;9.60;99.90;;;;;;5015418;28;20479;-87
2022/04/01 05:34:44;;;;;;;14.65;11.35;;;9.60;99.90;;;;;;5015745;28;20032;-87
2022/04/01 05:37:10;;;;;;;;;;;9.50;99.90;;;;;;5015726;28;20396;-87
2022/04/01 05:39:40;;;;;;;16.65;11.95;;;9.50;99.90;;;;;;5015794;28;20028;-87
2022/04/01 05:42:07;;;;;;;14.18;11.60;;;9.50;99.90;;;;;;5013419;28;20050;-87
2022/04/01 05:44:34;;;;;;;13.55;11.52;;;9.50;99.90;;;;;;5013858;28;20054;-87
2022/04/01 05:47:01;;;;;;;15.20;12.07;;;9.50;99.90;;;;;;5014230;28;20022;-87
2022/04/01 05:49:28;;;;;;;16.17;12.18;;;9.50;99.90;;;;;;5015164;28;20022;-87
2022/04/01 05:51:54;;;;;;;13.88;11.55;;;9.50;99.90;;;;;;5014862;28;20061;-87
2022/04/01 05:54:22;;;;;;;16.10;11.35;;;9.50;99.90;;;;;;5015009;28;20065;-87
2022/04/01 05:56:50;;;;;;;15.88;12.40;;;9.50;99.90;;;;;;5013254;28;20125;-87
2022/04/01 05:59:17;;;;;;;14.45;11.75;;;9.50;99.90;;;;;;5013616;28;20084;-87
2022/04/01 06:01:56;;;;;;;14.77;11.73;;;9.50;99.90;;;;;;5014154;28;20096;-87
2022/04/01 06:04:28;;;;;;;15.00;12.13;;;9.50;99.90;;;;;;5013505;28;20022;-87
2022/04/01 06:07:16;;;;;;;15.63;12.02;;;9.50;99.90;;;;;;5013667;28;20516;-87
2022/04/01 06:10:00;;;;;;;14.45;11.60;;;9.50;99.90;;;;;;5013517;28;20033;-87
2022/04/01 06:12:37;;;;;;;15.00;12.05;;;9.50;99.90;;;;;;5014788;28;20084;-88
2022/04/01 06:15:19;;;;;;;14.63;12.02;;;9.50;99.90;;;;;;5014701;28;20029;-87
2022/04/01 06:17:54;;;;;;;13.63;11.30;;;9.50;99.90;;;;;;5014738;28;20105;-88
2022/04/01 06:20:24;;;;;;;12.85;11.25;;;9.40;99.90;;;;;;5013344;28;20052;-87
2022/04/01 06:22:58;;;;;;;15.18;12.18;;;9.40;99.90;;;;;;5014114;28;20435;-87
2022/04/01 06:25:30;;;;;;;13.95;11.27;;;9.50;99.90;;;;;;5013291;28;20026;-87
2022/04/01 06:28:16;;;;;;;13.20;11.23;;;9.50;99.90;;;;;;5013217;28;20419;-87
2022/04/01 06:30:47;;;;;;;13.77;12.25;;;9.50;99.90;;;;;;5013286;28;20044;-87
2022/04/01 06:33:31;;;;;;;14.27;11.52;;;9.50;99.90;;;;;;5013166;28;20088;-87
2022/04/01 06:36:03;;;;;;;15.02;12.07;;;9.50;99.90;;;;;;5014379;28;20496;-88
2022/04/01 06:38:29;;;;;;;13.32;11.52;;;9.50;99.90;;;;;;5014226;28;20034;-88
2022/04/01 06:41:03;;;;;;;13.05;10.95;;;9.40;99.90;;;;;;5014289;28;20080;-88
2022/04/01 06:43:29;;;;;;;14.25;11.82;;;9.50;99.90;;;;;;5013026;28;20018;-87
2022/04/01 06:45:54;;;;;;;13.85;11.80;;;9.40;99.90;;;;;;5012913;28;20026;-87
2022/04/01 06:48:20;;;;;;;13.02;11.18;;;9.50;99.90;;;;;;5012825;28;20091;-87
2022/04/01 06:50:49;;;;;;;13.07;10.75;;;9.40;99.90;;;;;;5012693;28;20033;-88
2022/04/01 06:53:19;;;;;;;12.73;10.98;;;9.40;99.90;;;;;;5011928;28;20030;-88
2022/04/01 06:55:46;;;;;;;12.95;10.93;;;9.40;99.90;;;;;;5014078;28;20055;-87
2022/04/01 06:58:12;;;;;;;12.48;11.02;;;9.40;99.90;;;;;;5012637;28;20397;-87
2022/04/01 07:00:40;;;;;;;12.90;10.70;;;9.40;99.90;;;;;;5013999;28;20018;-88
2022/04/01 07:03:07;;;;;;;11.43;10.07;;;9.40;99.90;;;;;;5012761;28;20389;-87
2022/04/01 07:05:35;;;;;;;11.13;10.02;;;9.40;99.90;;;;;;5012654;28;20065;-87
2022/04/01 07:08:05;;;;;;;11.23;9.80;;;9.50;99.90;;;;;;5012570;28;20058;-87
2022/04/01 07:10:31;;;;;;;11.32;9.52;;;9.50;99.90;;;;;;5013941;28;20164;-88
2022/04/01 07:12:58;;;;;;;11.48;9.88;;;9.50;99.90;;;;;;5012439;28;20499;-87
2022/04/01 07:15:27;;;;;;;11.05;9.88;;;9.50;99.90;;;;;;5012351;28;20053;-88
2022/04/01 07:17:52;;;;;;;10.70;9.60;;;9.50;99.90;;;;;;5012543;28;20180;-87
2022/04/01 07:20:20;;;;;;;10.65;9.45;;;9.50;99.90;;;;;;5012366;28;20158;-87
2022/04/01 07:22:46;;;;;;;9.85;8.85;;;9.50;99.90;;;;;;5012416;28;20082;-87
2022/04/01 07:25:12;;;;;;;10.80;9.18;;;9.50;99.90;;;;;;5012419;28;20384;-87
2022/04/01 07:27:38;;;;;;;10.27;8.77;;;9.50;99.90;;;;;;5012196;28;20109;-87
2022/04/01 07:30:08;;;;;;;10.57;8.75;;;9.50;99.90;;;;;;5012319;28;20026;-88
2022/04/01 07:32:35;;;;;;;9.52;8.32;;;9.50;99.90;;;;;;5012264;28;20026;-87
2022/04/01 07:35:09;;;;;;;9.15;8.15;;;9.50;99.90;;;;;;5012141;28;20030;-87
2022/04/01 07:37:35;;;;;;;8.93;7.45;;;9.50;99.90;;;;;;5012266;28;20064;-87
2022/04/01 07:40:01;;;;;;;8.07;7.28;;;9.50;99.90;;;;;;5012090;28;20069;-88
2022/04/01 07:42:28;;;;;;;9.10;7.90;;;9.50;99.90;;;;;;5012149;28;20026;-87
2022/04/01 07:44:54;;;;;;;9.23;8.07;;;9.50;99.90;;;;;;5012075;28;20021;-88
2022/04/01 07:47:21;;;;;;;8.65;7.75;;;9.40;99.90;;;;;;5012116;28;20433;-87
2022/04/01 07:49:47;;;;;;;8.77;7.88;;;9.50;99.90;;;;;;5011964;28;20511;-87
2022/04/01 07:52:14;;;;;;;8.90;7.20;;;9.50;99.90;;;;;;5011840;28;20049;-87
2022/04/01 07:54:42;;;;;;;8.02;7.22;;;9.50;99.90;;;;;;5012163;28;20077;-87
2022/04/01 07:57:09;;;;;;;8.35;7.50;;;9.40;99.90;;;;;;5013473;28;20022;-88
2022/04/01 07:59:35;;;;;;;9.02;7.43;;;9.50;99.90;;;;;;5012822;28;20033;-88
2022/04/01 08:02:04;;;;;;;8.48;7.57;;;9.40;99.90;;;;;;5012102;28;20079;-87
2022/04/01 08:04:30;;;;;;;8.57;7.70;;;9.40;99.90;;;;;;5012849;28;20018;-88
2022/04/01 08:06:57;;;;;;;9.43;7.85;;;9.40;99.90;;;;;;5016106;28;20025;-87
2022/04/01 08:09:24;;;;;;;8.77;7.75;;;9.40;99.90;;;;;;5016058;28;20481;-88
2022/04/01 08:11:50;;;;;;;9.00;8.02;;;9.40;99.90;;;;;;5017323;28;20025;-89
2022/04/01 08:14:17;;;;;;;9.40;8.10;;;9.40;99.90;;;;;;5015786;28;20389;-87
2022/04/01 08:16:43;;;;;;;8.25;7.40;;;9.40;99.90;;;;;;5016166;28;20025;-88
2022/04/01 08:19:09;;;;;;;9.30;7.95;;;9.40;99.90;;;;;;5015650;28;20022;-88
2022/04/01 08:21:35;;;;;;;7.90;6.97;;;9.40;99.90;;;;;;5015785;28;20136;-87
2022/04/01 08:24:01;;;;;;;8.88;7.63;;;9.40;99.90;;;;;;5015704;28;20057;-88
2022/04/01 08:26:26;;;;;;;8.68;7.35;;;9.40;99.90;;;;;;5016768;28;20033;-88
2022/04/01 08:28:53;;;;;;;8.82;7.53;;;9.40;99.90;;;;;;5015697;28;20053;-88
2022/04/01 08:31:20;;;;;;;9.35;7.40;;;9.40;99.90;;;;;;5015491;28;20117;-88
2022/04/01 08:33:46;;;;;;;8.45;7.55;;;9.40;99.90;;;;;;5015444;28;20026;-88
2022/04/01 08:36:14;;;;;;;8.25;7.35;;;9.40;99.90;;;;;;5015362;28;20389;-87
2022/04/01 08:38:40;;;;;;;8.13;7.30;;;9.40;99.90;;;;;;5015278;28;20030;-87
2022/04/01 08:41:06;;;;;;;9.20;8.20;;;9.40;99.90;;;;;;5015252;28;20022;-87
2022/04/01 08:43:37;;;;;;;8.70;7.60;;;9.40;99.90;;;;;;5015523;28;20473;-87
2022/04/01 08:46:05;;;;;;;9.50;7.85;;;9.40;99.90;;;;;;5015222;28;20033;-87
2022/04/01 08:48:32;;;;;;;10.23;7.78;;;9.40;99.90;;;;;;5015099;28;20057;-87
2022/04/01 08:50:58;;;;;;;9.48;8.02;;;9.40;99.90;;;;;;5014755;28;20038;-87
2022/04/01 08:53:27;;;;;;;8.82;7.60;;;9.40;99.90;;;;;;5015059;28;20056;-87
2022/04/01 08:55:55;;;;;;;9.57;7.65;;;9.40;99.90;;;;;;5014986;28;20189;-88
2022/04/01 08:58:25;;;;;;;8.38;7.25;;;9.40;99.90;;;;;;5014895;28;20113;-88
2022/04/01 09:00:52;;;;;;;9.02;6.85;;;9.40;99.90;;;;;;5015118;28;20033;-87
2022/04/01 09:03:21;;;;;;;8.20;7.40;;;9.40;99.90;;;;;;5014872;28;20084;-87
2022/04/01 09:06:00;;;;;;;7.28;6.57;;;9.40;99.90;;;;;;5015122;28;20030;-88
2022/04/01 09:08:27;;;;;;;7.82;6.95;;;9.40;99.90;;;;;;5016073;28;20064;-88
2022/04/01 09:10:57;;;;;;;8.45;7.18;;;9.30;99.90;;;;;;5016038;28;20036;-88
2022/04/01 09:13:26;;;;;;;8.25;6.95;;;9.30;99.90;;;;;;5014659;28;20030;-87
2022/04/01 09:15:52;;;;;;;7.78;6.63;;;9.30;99.90;;;;;;5013677;28;20037;-87
2022/04/01 09:18:40;;;;;;;9.43;6.90;;;9.30;99.90;;;;;;5014228;28;20064;-86
2022/04/01 09:21:11;;;;;;;10.70;7.88;;;;;;;;;;5015951;28;20037;-90
2022/04/01 09:23:38;;;;;;;9.88;8.85;;;9.10;99.90;;;;;;5015067;28;20034;-88
2022/04/01 09:26:05;;;;;;;9.85;8.25;;;8.70;99.90;;;;;;5014394;28;20022;-89
2022/04/01 09:28:34;;;;;;;12.30;8.60;;;8.60;99.90;;;;;;5014730;28;20108;-88
2022/04/01 09:31:10;;;;;;;9.50;8.25;;;8.70;99.90;;;;;;5014476;28;20456;-88
2022/04/01 09:33:49;;;;;;;9.68;7.68;;;8.70;99.90;;;;;;5014456;28;20026;-88
2022/04/01 09:39:07;;;;;;;9.50;7.63;;;8.90;99.90;;;;;;5015959;28;20022;-89
2022/04/01 09:41:35;;;;;;;8.20;7.30;;;9.00;99.90;;;;;;5014345;28;20042;-89
2022/04/01 09:44:15;;;;;;;7.50;6.70;;;9.00;99.90;;;;;;5014541;28;20025;-88
2022/04/01 09:46:48;;;;;;;7.53;6.75;;;9.00;99.90;;;;;;5014261;28;20022;-88
2022/04/01 09:49:27;;;;;;;8.73;6.88;;;9.10;99.90;;;;;;5014003;28;20523;-88
2022/04/01 09:51:53;;;;;;;7.60;6.57;;;9.10;99.90;;;;;;5013707;28;20133;-88
2022/04/01 09:54:19;;;;;;;7.43;6.25;;;9.10;99.90;;;;;;5014630;28;20053;-88
2022/04/01 09:56:46;;;;;;;6.63;5.88;;;9.10;99.90;;;;;;5013909;28;20026;-89
2022/04/01 09:59:14;;;;;;;6.95;5.70;;;9.10;99.90;;;;;;5013823;28;20369;-89
2022/04/01 10:01:41;;;;;;;7.25;5.53;;;9.10;99.90;;;;;;5013900;28;20096;-89
2022/04/01 10:04:09;;;;;;;6.82;5.93;;;9.20;99.90;;;;;;5013821;28;20025;-89
2022/04/01 10:06:36;;;;;;;6.50;5.13;;;9.10;99.90;;;;;;5013716;28;20583;-89
2022/04/01 10:09:08;;;;;;;6.55;5.47;;;9.10;99.90;;;;;;5013671;28;20025;-89
2022/04/01 10:11:39;;;;;;;7.35;5.28;;;9.20;99.90;;;;;;5015216;28;20029;-89
2022/04/01 10:14:16;;;;;;;5.80;4.60;;;9.20;99.90;;;;;;5013570;28;20033;-89
2022/04/01 10:16:44;;;;;;;5.95;5.10;;;9.10;99.90;;;;;;5013688;28;20112;-88
2022/04/01 10:19:18;;;;;;;5.32;4.78;;;9.20;99.90;;;;;;5013538;28;20049;-88
2022/04/01 10:21:45;;;;;;;5.18;4.68;;;9.10;99.90;;;;;;5013668;28;20099;-89
2022/04/01 10:24:13;;;;;;;5.32;4.63;;;9.20;99.90;;;;;;5013455;28;20029;-89
2022/04/01 10:27:11;;;;;;;5.45;4.78;;;9.20;99.90;;;;;;5013489;28;20030;-89
2022/04/01 10:29:37;;;;;;;5.32;4.63;;;9.20;99.90;;;;;;5013388;28;20025;-89
2022/04/01 10:32:24;;;;;;;5.10;4.22;;;9.10;99.90;;;;;;5013524;28;20026;-89
2022/04/01 10:34:51;;;;;;;4.70;4.03;;;9.10;99.90;;;;;;5013535;28;20049;-88
2022/04/01 10:37:18;;;;;;;6.35;5.50;;;9.10;99.90;;;;;;5014134;28;20033;-88
2022/04/01 10:39:51;;;;;;;6.93;5.68;;;8.80;99.90;;;;;;5014563;28;20034;-87
2022/04/01 10:42:17;;;;;;;6.13;4.97;;;8.60;99.90;;;;;;5012943;28;20104;-87
2022/04/01 10:44:47;;;;;;;5.45;4.88;;;8.50;99.90;;;;;;5012938;28;20037;-88
2022/04/01 10:47:13;;;;;;;5.15;4.60;;;8.60;99.90;;;;;;5012962;28;20369;-87
2022/04/01 10:52:23;;;;;;;6.70;4.75;;;8.80;99.90;;;;;;5014314;28;20133;-89
2022/04/01 10:55:11;;;;;;;5.05;4.55;;;8.80;99.90;;;;;;5014270;28;20034;-89
2022/04/01 10:57:42;;;;;;;4.70;4.30;;;8.90;99.90;;;;;;5014282;28;20032;-89
2022/04/01 11:00:14;;;;;;;4.93;4.03;;;8.90;99.90;;;;;;5012808;28;20029;-89
2022/04/01 11:02:41;;;;;;;4.30;3.90;;;9.00;99.90;;;;;;5012930;28;20539;-89
2022/04/01 11:05:31;;;;;;;5.10;4.50;;;9.00;99.90;;;;;;5012769;28;20022;-89
2022/04/01 11:08:16;;;;;;;5.55;4.32;;;9.00;99.90;;;;;;5013601;28;20342;-89
2022/04/01 11:11:08;;;;;;;4.35;3.90;;;9.10;99.90;;;;;;5012640;28;20048;-89
2022/04/01 11:13:35;;;;;;;4.05;3.55;;;9.10;99.90;;;;;;5012780;28;20021;-89
2022/04/01 11:16:15;;;;;;;3.88;3.55;;;9.10;99.90;;;;;;5013771;28;20225;-89
2022/04/01 11:19:10;;;;;;;4.00;3.53;;;9.10;99.90;;;;;;5012748;28;20029;-88
2022/04/01 11:21:35;;;;;;;;;;;9.10;99.90;;;;;;5012941;28;20018;-88
2022/04/01 11:24:28;;;;;;;4.28;3.50;;;9.10;99.90;;;;;;5012944;28;19905;-89
2022/04/01 11:26:53;;;;;;;3.85;3.42;;;9.10;99.90;;;;;;5014228;28;20022;-89
2022/04/01 11:29:23;;;;;;;3.60;3.30;;;9.10;99.90;;;;;;5012534;28;20488;-88
2022/04/01 11:32:00;;;;;;;4.18;3.22;;;9.10;99.90;;;;;;5012712;28;20161;-88
2022/04/01 11:34:26;;;;;;;4.07;2.97;;;9.10;99.90;;;;;;5012586;28;20033;-89
2022/04/01 11:37:01;;;;;;;3.50;3.20;;;9.10;99.90;;;;;;5013730;28;20030;-89
2022/04/01 11:39:27;;;;;;;3.70;3.40;;;9.10;99.90;;;;;;5013043;28;20022;-89
2022/04/01 11:41:54;;;;;;;4.90;3.00;;;9.10;99.90;;;;;;5012455;28;20112;-89
2022/04/01 11:44:21;;;;;;;3.50;3.20;;;9.10;99.90;;;;;;5013790;28;20018;-89
2022/04/01 11:46:55;;;;;;;3.10;2.78;;;9.10;99.90;;;;;;5012379;28;20061;-89
2022/04/01 11:49:26;;;;;;;3.33;3.03;;;9.10;99.90;;;;;;5012597;28;20033;-89
2022/04/01 11:51:51;;;;;;;3.05;2.70;;;9.10;99.90;;;;;;5012095;28;20053;-89
2022/04/01 11:54:19;;;;;;;4.68;3.25;;;9.10;99.90;;;;;;5012272;28;20022;-88
2022/04/01 11:56:45;;;;;;;3.97;3.30;;;9.20;99.90;;;;;;5012254;28;20517;-88
2022/04/01 11:59:13;;;;;;;3.30;3.00;;;9.10;99.90;;;;;;5012281;28;20145;-90
2022/04/01 12:01:54;;;;;;;3.33;2.95;;;9.20;99.90;;;;;;5012181;28;20022;-88
2022/04/01 12:04:27;;;;;;;3.80;3.30;;;9.20;99.90;;;;;;5013489;28;20018;-87
2022/04/01 12:09:37;;;;;;;3.38;2.95;;;9.20;99.90;;;;;;5013846;28;20033;-89
2022/04/01 12:12:07;;;;;;;3.45;3.03;;;9.10;99.90;;;;;;5012137;28;20026;-88
2022/04/01 12:14:33;;;;;;;4.90;3.30;;;9.20;99.90;;;;;;5013152;28;20377;-89
2022/04/01 12:17:07;;;;;;;3.50;3.20;;;9.20;99.90;;;;;;5012241;28;20032;-89
2022/04/01 12:19:33;;;;;;;3.47;3.15;;;9.20;99.90;;;;;;5012370;28;20481;-88
2022/04/01 12:22:02;;;;;;;3.53;3.20;;;9.10;99.90;;;;;;5013392;28;20036;-88
2022/04/01 12:24:29;;;;;;;4.75;3.63;;;9.20;99.90;;;;;;5012088;28;20026;-89
2022/04/01 12:26:56;;;;;;;3.88;3.20;;;9.10;99.90;;;;;;5011980;28;20105;-89
2022/04/01 12:29:27;;;;;;;4.38;3.70;;;9.10;99.90;;;;;;5013116;28;20026;-87
2022/04/01 12:31:56;;;;;;;5.07;3.53;;;9.20;99.90;;;;;;5011735;28;20045;-89
2022/04/01 12:34:25;;;;;;;3.90;3.50;;;9.20;99.90;;;;;;5011895;28;20397;-89
2022/04/01 12:36:53;;;;;;;5.25;3.42;;;9.10;99.90;;;;;;5011894;28;20025;-88
2022/04/01 12:39:18;;;;;;;3.85;3.20;;;9.10;99.90;;;;;;5013079;28;20026;-88
2022/04/01 12:41:53;;;;;;;3.75;3.40;;;9.10;99.90;;;;;;5011702;28;20022;-88
2022/04/01 12:44:26;;;;;;;3.63;3.22;;;9.20;99.90;;;;;;5011847;28;20018;-89
2022/04/01 12:46:52;;;;;;;7.03;3.40;;;9.20;99.90;;;;;;5011819;28;20180;-88
2022/04/01 12:49:20;;;;;;;3.85;3.30;;;9.20;99.90;;;;;;5011914;28;20400;-88
2022/04/01 12:51:54;;;;;;;3.60;3.25;;;9.10;99.90;;;;;;5015460;28;20046;-90
2022/04/01 12:54:28;;;;;;;4.15;3.28;;;9.10;99.90;;;;;;5015280;28;20032;-89
2022/04/01 12:56:54;;;;;;;3.50;3.20;;;9.10;99.90;;;;;;5016573;28;20101;-89
2022/04/01 12:59:22;;;;;;;3.45;3.10;;;9.20;99.90;;;;;;5016408;28;20033;-89
2022/04/01 13:02:09;;;;;;;3.97;3.05;;;9.20;99.90;;;;;;5015198;28;20165;-89
2022/04/01 13:04:49;;;;;;;3.50;3.08;;;9.20;99.90;;;;;;5016216;28;20032;-87
2022/04/01 13:07:19;;;;;;;3.38;3.08;;;9.20;99.90;;;;;;5015804;28;20045;-89
2022/04/01 13:09:51;;;;;;;3.28;2.97;;;9.20;99.90;;;;;;5015085;28;20026;-89
2022/04/01 13:12:20;;;;;;;3.55;3.25;;;9.20;99.90;;;;;;5014954;28;20033;-88